MiSS Caroline — WDH3754 — position and weather

sailwx.info

Track history (hours):
 
Tides and Currents Weather Stations Pressure Air Temp Water Temp Dewpoint Dewpoint Depression Visibility Wind Speed Wind Dir Waves Ship Positions

MiSS Caroline

Owner: Central Boat Rentals, Inc, Berwick, LA. More information available from US FCC via Universal Licensing System and Coast Guard Vessel Documentation Center.

Last reported at 2017-Nov-23 16:14 UTC. Time now 2017-Nov-25 02:10 UTC.
Position N 31°60' W 091°06'.

Length 22 m; draft 2.7 m.

Type: Tug. MMSI: 367610550.

Date/timePositionNaut miles runAvg speedWind from/ knotsBaromVisibWave heightAir tempDewpointWater temp
2017-Nov-23 16:14N 31°60' W 091°06'311.3
2017-Nov-23 15:56N 32°03' W 091°04'510.6
2017-Nov-23 15:29N 32°07' W 091°06'2 5.3
2017-Nov-23 15:00N 32°07' W 091°04'3 6.9
2017-Nov-23 14:30N 32°09' W 091°00'511.0
2017-Nov-23 14:00N 32°15' W 090°59'510.9
2017-Nov-23 13:30N 32°19' W 090°54'4 7.5
2017-Nov-23 13:00N 32°21' W 090°58'4 8.4
2017-Nov-23 12:30N 32°25' W 090°60'510.8
2017-Nov-23 12:00N 32°27' W 091°05'5 9.7
2017-Nov-23 11:30N 32°32' W 091°06'510.8
2017-Nov-23 11:00N 32°37' W 091°09'8 5.0
2017-Nov-23 09:27N 32°44' W 091°09'  
2017-Nov-17 15:57N 32°41' W 091°04'3 4.2
2017-Nov-17 15:16N 32°40' W 091°07'1 3.7
2017-Nov-17 14:56N 32°39' W 091°08'2 3.5
2017-Nov-17 14:29N 32°38' W 091°09'2 3.5
2017-Nov-17 14:00N 32°36' W 091°09'2 4.1
2017-Nov-17 13:30N 32°35' W 091°07'2 3.8
2017-Nov-17 13:00N 32°33' W 091°06'2 4.0
2017-Nov-17 12:30N 32°31' W 091°06'2 4.8
2017-Nov-17 12:00N 32°29' W 091°07'2 4.2
2017-Nov-17 11:30N 32°27' W 091°05'2 3.9
2017-Nov-17 11:00N 32°26' W 091°03'1 2.8
2017-Nov-17 10:30N 32°26' W 091°02'2 3.9
2017-Nov-17 10:00N 32°25' W 090°60'1 2.9
2017-Nov-17 09:30N 32°23' W 090°60'1 2.9
2017-Nov-17 09:00N 32°22' W 091°00'2 3.1
2017-Nov-17 08:30N 32°21' W 090°59'2 4.5
2017-Nov-17 08:00N 32°21' W 090°56'2 3.9
2017-Nov-17 07:30N 32°20' W 090°54'2 4.0
2017-Nov-17 07:00N 32°18' W 090°55'2 3.3
2017-Nov-17 06:30N 32°17' W 090°56'2 4.2
2017-Nov-17 06:00N 32°16' W 090°58'2 3.6
2017-Nov-17 05:30N 32°14' W 090°59'2 4.3
2017-Nov-17 05:00N 32°12' W 090°59'2 3.8
2017-Nov-17 04:30N 32°10' W 090°60'2 3.7
2017-Nov-17 04:00N 32°08' W 091°00'2 3.7
2017-Nov-17 03:30N 32°07' W 091°02'2 3.0
2017-Nov-17 02:58N 32°08' W 091°04'2 3.8
2017-Nov-17 02:30N 32°08' W 091°06'2 3.7
2017-Nov-17 01:54N 32°06' W 091°05'2 4.4
2017-Nov-17 01:28N 32°04' W 091°04'2 3.7
2017-Nov-17 01:00N 32°02' W 091°04'2 4.8
2017-Nov-17 00:30N 32°00' W 091°05'5 4.1
2017-Nov-16 23:16N 31°58' W 091°11'  
2017-Nov-13 23:53N 29°50' W 091°57'2 5.3
2017-Nov-13 23:29N 29°50' W 091°60'2 4.2
2017-Nov-13 22:59N 29°49' W 092°02'3 5.4
2017-Nov-13 22:30N 29°48' W 092°05'3 5.6
2017-Nov-13 22:00N 29°47' W 092°08'  
Track history (hours):
 
Tides and Currents Weather Stations Pressure Air Temp Water Temp Dewpoint Dewpoint Depression Visibility Wind Speed Wind Dir Waves Ship Positions

MiSS Caroline

Owner: Central Boat Rentals, Inc, Berwick, LA. More information available from US FCC via Universal Licensing System and Coast Guard Vessel Documentation Center.

Last reported at 2017-Nov-23 16:14 UTC. Time now 2017-Nov-25 02:10 UTC.
Position N 31°60' W 091°06'.

Length 22 m; draft 2.7 m.

Type: Tug. MMSI: 367610550.

Date/timePositionNaut miles runAvg speedWind from/ knotsBaromVisibWave heightAir tempDewpointWater temp
2017-Nov-23 16:14N 31°60' W 091°06'311.3
2017-Nov-23 15:56N 32°03' W 091°04'510.6
2017-Nov-23 15:29N 32°07' W 091°06'2 5.3
2017-Nov-23 15:00N 32°07' W 091°04'3 6.9
2017-Nov-23 14:30N 32°09' W 091°00'511.0
2017-Nov-23 14:00N 32°15' W 090°59'510.9
2017-Nov-23 13:30N 32°19' W 090°54'4 7.5
2017-Nov-23 13:00N 32°21' W 090°58'4 8.4
2017-Nov-23 12:30N 32°25' W 090°60'510.8
2017-Nov-23 12:00N 32°27' W 091°05'5 9.7
2017-Nov-23 11:30N 32°32' W 091°06'510.8
2017-Nov-23 11:00N 32°37' W 091°09'8 5.0
2017-Nov-23 09:27N 32°44' W 091°09'  
2017-Nov-17 15:57N 32°41' W 091°04'3 4.2
2017-Nov-17 15:16N 32°40' W 091°07'1 3.7
2017-Nov-17 14:56N 32°39' W 091°08'2 3.5
2017-Nov-17 14:29N 32°38' W 091°09'2 3.5
2017-Nov-17 14:00N 32°36' W 091°09'2 4.1
2017-Nov-17 13:30N 32°35' W 091°07'2 3.8
2017-Nov-17 13:00N 32°33' W 091°06'2 4.0
2017-Nov-17 12:30N 32°31' W 091°06'2 4.8
2017-Nov-17 12:00N 32°29' W 091°07'2 4.2
2017-Nov-17 11:30N 32°27' W 091°05'2 3.9
2017-Nov-17 11:00N 32°26' W 091°03'1 2.8
2017-Nov-17 10:30N 32°26' W 091°02'2 3.9
2017-Nov-17 10:00N 32°25' W 090°60'1 2.9
2017-Nov-17 09:30N 32°23' W 090°60'1 2.9
2017-Nov-17 09:00N 32°22' W 091°00'2 3.1
2017-Nov-17 08:30N 32°21' W 090°59'2 4.5
2017-Nov-17 08:00N 32°21' W 090°56'2 3.9
2017-Nov-17 07:30N 32°20' W 090°54'2 4.0
2017-Nov-17 07:00N 32°18' W 090°55'2 3.3
2017-Nov-17 06:30N 32°17' W 090°56'2 4.2
2017-Nov-17 06:00N 32°16' W 090°58'2 3.6
2017-Nov-17 05:30N 32°14' W 090°59'2 4.3
2017-Nov-17 05:00N 32°12' W 090°59'2 3.8
2017-Nov-17 04:30N 32°10' W 090°60'2 3.7
2017-Nov-17 04:00N 32°08' W 091°00'2 3.7
2017-Nov-17 03:30N 32°07' W 091°02'2 3.0
2017-Nov-17 02:58N 32°08' W 091°04'2 3.8
2017-Nov-17 02:30N 32°08' W 091°06'2 3.7
2017-Nov-17 01:54N 32°06' W 091°05'2 4.4
2017-Nov-17 01:28N 32°04' W 091°04'2 3.7
2017-Nov-17 01:00N 32°02' W 091°04'2 4.8
2017-Nov-17 00:30N 32°00' W 091°05'5 4.1
2017-Nov-16 23:16N 31°58' W 091°11'  
2017-Nov-13 23:53N 29°50' W 091°57'2 5.3
2017-Nov-13 23:29N 29°50' W 091°60'2 4.2
2017-Nov-13 22:59N 29°49' W 092°02'3 5.4
2017-Nov-13 22:30N 29°48' W 092°05'3 5.6
2017-Nov-13 22:00N 29°47' W 092°08'  

Dump ship's entire track history